sensor_id;sensor_type;location;lat;lon;timestamp;P1;durP1;ratioP1;P2;durP2;ratioP2
53293;SDS011;39181;53.440;5.644;2022-11-14T00:00:11;64.38;;;22.17;;
53293;SDS011;39181;53.440;5.644;2022-11-14T00:02:38;56.40;;;21.58;;
53293;SDS011;39181;53.440;5.644;2022-11-14T00:05:04;51.67;;;20.05;;
53293;SDS011;39181;53.440;5.644;2022-11-14T00:07:32;55.90;;;21.08;;
53293;SDS011;39181;53.440;5.644;2022-11-14T00:09:58;60.05;;;23.23;;
53293;SDS011;39181;53.440;5.644;2022-11-14T00:12:24;52.78;;;22.15;;
53293;SDS011;39181;53.440;5.644;2022-11-14T00:14:50;58.53;;;23.48;;
53293;SDS011;39181;53.440;5.644;2022-11-14T00:17:15;56.42;;;22.55;;
53293;SDS011;39181;53.440;5.644;2022-11-14T00:19:41;54.53;;;21.75;;
53293;SDS011;39181;53.440;5.644;2022-11-14T00:22:07;60.50;;;23.02;;
53293;SDS011;39181;53.440;5.644;2022-11-14T00:24:33;54.75;;;22.00;;
53293;SDS011;39181;53.440;5.644;2022-11-14T00:26:58;54.65;;;22.27;;
53293;SDS011;39181;53.440;5.644;2022-11-14T00:29:24;51.47;;;21.55;;
53293;SDS011;39181;53.440;5.644;2022-11-14T00:31:49;49.60;;;21.58;;
53293;SDS011;39181;53.440;5.644;2022-11-14T00:34:15;56.40;;;21.90;;
53293;SDS011;39181;53.440;5.644;2022-11-14T00:36:40;53.35;;;22.17;;
53293;SDS011;39181;53.440;5.644;2022-11-14T00:39:08;55.85;;;21.90;;
53293;SDS011;39181;53.440;5.644;2022-11-14T00:41:38;59.50;;;23.67;;
53293;SDS011;39181;53.440;5.644;2022-11-14T00:44:04;54.85;;;22.08;;
53293;SDS011;39181;53.440;5.644;2022-11-14T00:46:30;50.65;;;21.98;;
53293;SDS011;39181;53.440;5.644;2022-11-14T00:48:55;47.85;;;21.38;;
53293;SDS011;39181;53.440;5.644;2022-11-14T00:51:21;52.40;;;22.25;;
53293;SDS011;39181;53.440;5.644;2022-11-14T00:53:47;52.40;;;21.60;;
53293;SDS011;39181;53.440;5.644;2022-11-14T00:56:12;50.50;;;21.40;;
53293;SDS011;39181;53.440;5.644;2022-11-14T00:58:38;50.72;;;20.85;;
53293;SDS011;39181;53.440;5.644;2022-11-14T01:01:03;49.53;;;20.58;;
53293;SDS011;39181;53.440;5.644;2022-11-14T01:03:29;50.00;;;20.52;;
53293;SDS011;39181;53.440;5.644;2022-11-14T01:05:54;47.60;;;20.73;;
53293;SDS011;39181;53.440;5.644;2022-11-14T01:08:20;46.15;;;20.17;;
53293;SDS011;39181;53.440;5.644;2022-11-14T01:10:46;40.80;;;20.38;;
53293;SDS011;39181;53.440;5.644;2022-11-14T01:13:13;49.30;;;20.63;;
53293;SDS011;39181;53.440;5.644;2022-11-14T01:15:41;48.95;;;20.45;;
53293;SDS011;39181;53.440;5.644;2022-11-14T01:18:12;43.72;;;21.25;;
53293;SDS011;39181;53.440;5.644;2022-11-14T01:20:41;41.22;;;19.52;;
53293;SDS011;39181;53.440;5.644;2022-11-14T01:23:07;41.72;;;19.55;;
53293;SDS011;39181;53.440;5.644;2022-11-14T01:25:38;40.33;;;18.65;;
53293;SDS011;39181;53.440;5.644;2022-11-14T01:28:08;36.88;;;19.15;;
53293;SDS011;39181;53.440;5.644;2022-11-14T01:30:35;42.45;;;19.98;;
53293;SDS011;39181;53.440;5.644;2022-11-14T01:33:01;38.72;;;19.58;;
53293;SDS011;39181;53.440;5.644;2022-11-14T01:35:27;41.03;;;18.63;;
53293;SDS011;39181;53.440;5.644;2022-11-14T01:37:52;40.95;;;19.95;;
53293;SDS011;39181;53.440;5.644;2022-11-14T01:40:18;38.50;;;18.75;;
53293;SDS011;39181;53.440;5.644;2022-11-14T01:48:16;37.08;;;18.83;;
53293;SDS011;39181;53.440;5.644;2022-11-14T01:50:46;42.42;;;19.30;;
53293;SDS011;39181;53.440;5.644;2022-11-14T01:53:16;38.85;;;19.00;;
53293;SDS011;39181;53.440;5.644;2022-11-14T01:55:42;43.17;;;19.95;;
53293;SDS011;39181;53.440;5.644;2022-11-14T01:58:07;37.75;;;18.40;;
53293;SDS011;39181;53.440;5.644;2022-11-14T02:00:34;40.80;;;18.67;;
53293;SDS011;39181;53.440;5.644;2022-11-14T02:03:00;41.45;;;19.45;;
53293;SDS011;39181;53.440;5.644;2022-11-14T02:05:25;44.10;;;20.75;;
53293;SDS011;39181;53.440;5.644;2022-11-14T02:07:51;41.13;;;19.45;;
53293;SDS011;39181;53.440;5.644;2022-11-14T02:10:19;39.10;;;19.80;;
53293;SDS011;39181;53.440;5.644;2022-11-14T02:12:45;38.50;;;20.05;;
53293;SDS011;39181;53.440;5.644;2022-11-14T02:15:12;41.13;;;19.42;;
53293;SDS011;39181;53.440;5.644;2022-11-14T02:17:39;43.00;;;20.48;;
53293;SDS011;39181;53.440;5.644;2022-11-14T02:22:35;48.22;;;21.80;;
53293;SDS011;39181;53.440;5.644;2022-11-14T02:25:02;46.88;;;22.70;;
53293;SDS011;39181;53.440;5.644;2022-11-14T02:27:28;47.47;;;21.52;;
53293;SDS011;39181;53.440;5.644;2022-11-14T02:30:02;47.08;;;21.65;;
53293;SDS011;39181;53.440;5.644;2022-11-14T02:32:29;46.42;;;21.30;;
53293;SDS011;39181;53.440;5.644;2022-11-14T02:34:55;43.90;;;21.55;;
53293;SDS011;39181;53.440;5.644;2022-11-14T02:37:20;47.30;;;22.42;;
53293;SDS011;39181;53.440;5.644;2022-11-14T02:39:46;41.80;;;21.73;;
53293;SDS011;39181;53.440;5.644;2022-11-14T02:42:12;44.72;;;21.40;;
53293;SDS011;39181;53.440;5.644;2022-11-14T02:44:37;46.47;;;22.67;;
53293;SDS011;39181;53.440;5.644;2022-11-14T02:47:03;46.25;;;22.30;;
53293;SDS011;39181;53.440;5.644;2022-11-14T02:49:28;47.53;;;22.67;;
53293;SDS011;39181;53.440;5.644;2022-11-14T02:51:54;46.92;;;23.42;;
53293;SDS011;39181;53.440;5.644;2022-11-14T02:54:19;47.05;;;22.65;;
53293;SDS011;39181;53.440;5.644;2022-11-14T02:56:45;49.13;;;23.75;;
53293;SDS011;39181;53.440;5.644;2022-11-14T02:59:11;50.50;;;24.67;;
53293;SDS011;39181;53.440;5.644;2022-11-14T03:01:36;47.72;;;24.70;;
53293;SDS011;39181;53.440;5.644;2022-11-14T03:04:02;47.50;;;24.85;;
53293;SDS011;39181;53.440;5.644;2022-11-14T03:06:28;51.38;;;25.42;;
53293;SDS011;39181;53.440;5.644;2022-11-14T03:08:53;48.78;;;25.30;;
53293;SDS011;39181;53.440;5.644;2022-11-14T03:11:19;52.90;;;26.77;;
53293;SDS011;39181;53.440;5.644;2022-11-14T03:13:44;52.83;;;27.60;;
53293;SDS011;39181;53.440;5.644;2022-11-14T03:16:11;49.03;;;26.08;;
53293;SDS011;39181;53.440;5.644;2022-11-14T03:18:38;52.13;;;26.77;;
53293;SDS011;39181;53.440;5.644;2022-11-14T03:21:10;48.83;;;26.52;;
53293;SDS011;39181;53.440;5.644;2022-11-14T03:23:38;51.72;;;27.42;;
53293;SDS011;39181;53.440;5.644;2022-11-14T03:26:05;57.65;;;28.08;;
53293;SDS011;39181;53.440;5.644;2022-11-14T03:28:32;55.70;;;28.48;;
53293;SDS011;39181;53.440;5.644;2022-11-14T03:30:58;56.17;;;28.35;;
53293;SDS011;39181;53.440;5.644;2022-11-14T03:33:23;55.17;;;27.55;;
53293;SDS011;39181;53.440;5.644;2022-11-14T03:35:49;56.92;;;28.88;;
53293;SDS011;39181;53.440;5.644;2022-11-14T03:38:16;54.22;;;28.63;;
53293;SDS011;39181;53.440;5.644;2022-11-14T03:40:42;57.50;;;30.25;;
53293;SDS011;39181;53.440;5.644;2022-11-14T03:43:08;56.58;;;30.00;;
53293;SDS011;39181;53.440;5.644;2022-11-14T03:45:35;56.28;;;28.88;;
53293;SDS011;39181;53.440;5.644;2022-11-14T03:48:01;58.17;;;31.45;;
53293;SDS011;39181;53.440;5.644;2022-11-14T03:50:28;56.75;;;30.17;;
53293;SDS011;39181;53.440;5.644;2022-11-14T03:52:53;63.13;;;33.17;;
53293;SDS011;39181;53.440;5.644;2022-11-14T03:55:19;66.10;;;33.15;;
53293;SDS011;39181;53.440;5.644;2022-11-14T03:57:44;65.35;;;32.88;;
53293;SDS011;39181;53.440;5.644;2022-11-14T04:00:10;63.35;;;33.60;;
53293;SDS011;39181;53.440;5.644;2022-11-14T04:02:36;59.63;;;31.85;;
53293;SDS011;39181;53.440;5.644;2022-11-14T04:05:01;68.97;;;34.45;;
53293;SDS011;39181;53.440;5.644;2022-11-14T04:07:27;67.47;;;34.30;;
53293;SDS011;39181;53.440;5.644;2022-11-14T04:09:52;64.63;;;33.13;;
53293;SDS011;39181;53.440;5.644;2022-11-14T04:12:18;64.22;;;33.05;;
53293;SDS011;39181;53.440;5.644;2022-11-14T04:14:43;70.10;;;34.20;;
53293;SDS011;39181;53.440;5.644;2022-11-14T04:17:09;67.43;;;35.35;;
53293;SDS011;39181;53.440;5.644;2022-11-14T04:19:34;67.10;;;35.13;;
53293;SDS011;39181;53.440;5.644;2022-11-14T04:22:00;71.60;;;35.38;;
53293;SDS011;39181;53.440;5.644;2022-11-14T04:24:26;71.95;;;35.03;;
53293;SDS011;39181;53.440;5.644;2022-11-14T04:26:52;75.18;;;36.47;;
53293;SDS011;39181;53.440;5.644;2022-11-14T04:29:17;73.65;;;38.05;;
53293;SDS011;39181;53.440;5.644;2022-11-14T04:31:43;72.25;;;36.53;;
53293;SDS011;39181;53.440;5.644;2022-11-14T04:34:08;78.30;;;39.08;;
53293;SDS011;39181;53.440;5.644;2022-11-14T04:36:34;73.80;;;37.05;;
53293;SDS011;39181;53.440;5.644;2022-11-14T04:38:59;69.32;;;36.45;;
53293;SDS011;39181;53.440;5.644;2022-11-14T04:41:25;73.90;;;36.85;;
53293;SDS011;39181;53.440;5.644;2022-11-14T04:43:51;71.10;;;35.75;;
53293;SDS011;39181;53.440;5.644;2022-11-14T04:46:16;77.10;;;37.50;;
53293;SDS011;39181;53.440;5.644;2022-11-14T04:48:42;76.85;;;36.25;;
53293;SDS011;39181;53.440;5.644;2022-11-14T04:51:07;74.65;;;37.30;;
53293;SDS011;39181;53.440;5.644;2022-11-14T04:53:33;76.45;;;38.03;;
53293;SDS011;39181;53.440;5.644;2022-11-14T04:55:58;76.10;;;37.00;;
53293;SDS011;39181;53.440;5.644;2022-11-14T04:58:24;79.13;;;37.53;;
53293;SDS011;39181;53.440;5.644;2022-11-14T05:00:50;74.88;;;38.42;;
53293;SDS011;39181;53.440;5.644;2022-11-14T05:03:16;77.45;;;37.22;;
53293;SDS011;39181;53.440;5.644;2022-11-14T05:05:41;86.45;;;40.33;;
53293;SDS011;39181;53.440;5.644;2022-11-14T05:08:07;74.22;;;37.65;;
53293;SDS011;39181;53.440;5.644;2022-11-14T05:10:32;79.10;;;38.55;;
53293;SDS011;39181;53.440;5.644;2022-11-14T05:12:58;77.55;;;37.25;;
53293;SDS011;39181;53.440;5.644;2022-11-14T05:15:23;74.30;;;37.50;;
53293;SDS011;39181;53.440;5.644;2022-11-14T05:17:49;74.35;;;35.08;;
53293;SDS011;39181;53.440;5.644;2022-11-14T05:20:14;83.00;;;37.35;;
53293;SDS011;39181;53.440;5.644;2022-11-14T05:22:40;77.57;;;38.00;;
53293;SDS011;39181;53.440;5.644;2022-11-14T05:25:06;68.28;;;35.03;;
53293;SDS011;39181;53.440;5.644;2022-11-14T05:27:32;74.40;;;35.78;;
53293;SDS011;39181;53.440;5.644;2022-11-14T05:29:57;69.50;;;35.20;;
53293;SDS011;39181;53.440;5.644;2022-11-14T05:32:23;77.28;;;36.97;;
53293;SDS011;39181;53.440;5.644;2022-11-14T05:34:49;67.47;;;33.85;;
53293;SDS011;39181;53.440;5.644;2022-11-14T05:37:14;69.55;;;34.17;;
53293;SDS011;39181;53.440;5.644;2022-11-14T05:39:40;65.07;;;31.95;;
53293;SDS011;39181;53.440;5.644;2022-11-14T05:42:05;69.55;;;33.15;;
53293;SDS011;39181;53.440;5.644;2022-11-14T05:44:31;66.97;;;33.25;;
53293;SDS011;39181;53.440;5.644;2022-11-14T05:46:56;68.68;;;34.38;;
53293;SDS011;39181;53.440;5.644;2022-11-14T05:49:22;70.82;;;33.53;;
53293;SDS011;39181;53.440;5.644;2022-11-14T05:51:48;75.57;;;34.00;;
53293;SDS011;39181;53.440;5.644;2022-11-14T05:54:13;64.32;;;32.63;;
53293;SDS011;39181;53.440;5.644;2022-11-14T05:56:39;64.05;;;32.33;;
53293;SDS011;39181;53.440;5.644;2022-11-14T05:59:04;67.40;;;32.33;;
53293;SDS011;39181;53.440;5.644;2022-11-14T06:01:30;65.80;;;31.65;;
53293;SDS011;39181;53.440;5.644;2022-11-14T06:03:56;62.13;;;32.20;;
53293;SDS011;39181;53.440;5.644;2022-11-14T06:06:21;70.57;;;32.70;;
53293;SDS011;39181;53.440;5.644;2022-11-14T06:08:47;61.80;;;30.27;;
53293;SDS011;39181;53.440;5.644;2022-11-14T06:11:14;60.45;;;31.05;;
53293;SDS011;39181;53.440;5.644;2022-11-14T06:13:42;62.70;;;30.45;;
53293;SDS011;39181;53.440;5.644;2022-11-14T06:16:09;58.40;;;30.38;;
53293;SDS011;39181;53.440;5.644;2022-11-14T06:18:36;56.67;;;29.48;;
53293;SDS011;39181;53.440;5.644;2022-11-14T06:21:04;63.30;;;32.05;;
53293;SDS011;39181;53.440;5.644;2022-11-14T06:23:37;62.00;;;31.38;;
53293;SDS011;39181;53.440;5.644;2022-11-14T06:26:04;67.50;;;31.52;;
53293;SDS011;39181;53.440;5.644;2022-11-14T06:28:31;67.88;;;32.85;;
53293;SDS011;39181;53.440;5.644;2022-11-14T06:30:58;62.83;;;32.80;;
53293;SDS011;39181;53.440;5.644;2022-11-14T06:33:25;63.22;;;31.77;;
53293;SDS011;39181;53.440;5.644;2022-11-14T06:35:58;64.20;;;32.33;;
53293;SDS011;39181;53.440;5.644;2022-11-14T06:38:25;66.82;;;31.73;;
53293;SDS011;39181;53.440;5.644;2022-11-14T06:40:50;63.22;;;32.60;;
53293;SDS011;39181;53.440;5.644;2022-11-14T06:43:16;65.68;;;32.38;;
53293;SDS011;39181;53.440;5.644;2022-11-14T06:45:42;65.03;;;31.70;;
53293;SDS011;39181;53.440;5.644;2022-11-14T06:48:07;69.10;;;33.10;;
53293;SDS011;39181;53.440;5.644;2022-11-14T06:50:33;66.55;;;32.08;;
53293;SDS011;39181;53.440;5.644;2022-11-14T06:52:58;58.97;;;30.45;;
53293;SDS011;39181;53.440;5.644;2022-11-14T06:55:24;61.55;;;32.25;;
53293;SDS011;39181;53.440;5.644;2022-11-14T06:57:52;64.90;;;33.35;;
53293;SDS011;39181;53.440;5.644;2022-11-14T07:00:19;61.17;;;30.83;;
53293;SDS011;39181;53.440;5.644;2022-11-14T07:02:46;64.25;;;31.92;;
53293;SDS011;39181;53.440;5.644;2022-11-14T07:05:13;63.10;;;31.20;;
53293;SDS011;39181;53.440;5.644;2022-11-14T07:07:39;61.80;;;32.30;;
53293;SDS011;39181;53.440;5.644;2022-11-14T07:10:04;60.28;;;30.95;;
53293;SDS011;39181;53.440;5.644;2022-11-14T07:12:30;61.95;;;31.38;;
53293;SDS011;39181;53.440;5.644;2022-11-14T07:14:56;72.85;;;33.67;;
53293;SDS011;39181;53.440;5.644;2022-11-14T07:17:22;71.30;;;32.65;;
53293;SDS011;39181;53.440;5.644;2022-11-14T07:19:48;61.63;;;31.25;;
53293;SDS011;39181;53.440;5.644;2022-11-14T07:22:14;66.13;;;32.20;;
53293;SDS011;39181;53.440;5.644;2022-11-14T07:24:39;64.57;;;31.52;;
53293;SDS011;39181;53.440;5.644;2022-11-14T07:27:05;70.40;;;34.10;;
53293;SDS011;39181;53.440;5.644;2022-11-14T07:29:33;67.50;;;33.42;;
53293;SDS011;39181;53.440;5.644;2022-11-14T07:31:58;66.55;;;32.72;;
53293;SDS011;39181;53.440;5.644;2022-11-14T07:34:24;64.13;;;34.35;;
53293;SDS011;39181;53.440;5.644;2022-11-14T07:36:49;64.57;;;33.53;;
53293;SDS011;39181;53.440;5.644;2022-11-14T07:39:15;67.13;;;33.20;;
53293;SDS011;39181;53.440;5.644;2022-11-14T07:41:41;60.70;;;33.25;;
53293;SDS011;39181;53.440;5.644;2022-11-14T07:44:07;70.05;;;33.60;;
53293;SDS011;39181;53.440;5.644;2022-11-14T07:46:32;65.47;;;32.10;;
53293;SDS011;39181;53.440;5.644;2022-11-14T07:48:58;65.82;;;33.38;;
53293;SDS011;39181;53.440;5.644;2022-11-14T07:51:24;65.05;;;33.65;;
53293;SDS011;39181;53.440;5.644;2022-11-14T07:53:50;66.80;;;33.65;;
53293;SDS011;39181;53.440;5.644;2022-11-14T07:56:17;70.28;;;34.22;;
53293;SDS011;39181;53.440;5.644;2022-11-14T07:58:44;72.45;;;34.58;;
53293;SDS011;39181;53.440;5.644;2022-11-14T08:01:10;69.47;;;32.25;;
53293;SDS011;39181;53.440;5.644;2022-11-14T08:03:37;72.07;;;34.95;;
53293;SDS011;39181;53.440;5.644;2022-11-14T08:06:06;68.60;;;34.22;;
53293;SDS011;39181;53.440;5.644;2022-11-14T08:08:34;69.80;;;34.55;;
53293;SDS011;39181;53.440;5.644;2022-11-14T08:11:00;72.97;;;34.08;;
53293;SDS011;39181;53.440;5.644;2022-11-14T08:13:26;78.13;;;35.58;;
53293;SDS011;39181;53.440;5.644;2022-11-14T08:15:52;72.57;;;34.42;;
53293;SDS011;39181;53.440;5.644;2022-11-14T08:18:18;68.88;;;34.45;;
53293;SDS011;39181;53.440;5.644;2022-11-14T08:20:44;69.13;;;33.53;;
53293;SDS011;39181;53.440;5.644;2022-11-14T08:23:10;61.13;;;32.95;;
53293;SDS011;39181;53.440;5.644;2022-11-14T08:25:37;60.80;;;29.95;;
53293;SDS011;39181;53.440;5.644;2022-11-14T08:28:02;59.45;;;31.13;;
53293;SDS011;39181;53.440;5.644;2022-11-14T08:30:28;62.38;;;32.60;;
53293;SDS011;39181;53.440;5.644;2022-11-14T08:32:54;61.88;;;31.88;;
53293;SDS011;39181;53.440;5.644;2022-11-14T08:35:20;62.22;;;32.65;;
53293;SDS011;39181;53.440;5.644;2022-11-14T08:37:45;58.83;;;31.73;;
53293;SDS011;39181;53.440;5.644;2022-11-14T08:40:11;63.30;;;33.47;;
53293;SDS011;39181;53.440;5.644;2022-11-14T08:42:37;65.60;;;32.38;;
53293;SDS011;39181;53.440;5.644;2022-11-14T08:45:03;63.40;;;31.48;;
53293;SDS011;39181;53.440;5.644;2022-11-14T08:47:29;68.35;;;34.20;;
53293;SDS011;39181;53.440;5.644;2022-11-14T08:49:54;67.15;;;32.10;;
53293;SDS011;39181;53.440;5.644;2022-11-14T08:52:20;66.47;;;33.00;;
53293;SDS011;39181;53.440;5.644;2022-11-14T08:54:46;60.92;;;31.15;;
53293;SDS011;39181;53.440;5.644;2022-11-14T08:57:12;67.32;;;33.53;;
53293;SDS011;39181;53.440;5.644;2022-11-14T08:59:39;63.67;;;33.33;;
53293;SDS011;39181;53.440;5.644;2022-11-14T09:02:05;64.90;;;33.60;;
53293;SDS011;39181;53.440;5.644;2022-11-14T09:04:33;71.40;;;35.63;;
53293;SDS011;39181;53.440;5.644;2022-11-14T09:06:59;67.90;;;32.13;;
53293;SDS011;39181;53.440;5.644;2022-11-14T09:09:24;76.82;;;35.13;;
53293;SDS011;39181;53.440;5.644;2022-11-14T09:11:50;67.07;;;33.58;;
53293;SDS011;39181;53.440;5.644;2022-11-14T09:14:15;66.75;;;32.65;;
53293;SDS011;39181;53.440;5.644;2022-11-14T09:16:41;66.90;;;33.78;;
53293;SDS011;39181;53.440;5.644;2022-11-14T09:19:06;63.63;;;33.22;;
53293;SDS011;39181;53.440;5.644;2022-11-14T09:21:32;64.05;;;33.55;;
53293;SDS011;39181;53.440;5.644;2022-11-14T09:23:57;62.28;;;32.38;;
53293;SDS011;39181;53.440;5.644;2022-11-14T09:26:23;63.88;;;33.20;;
53293;SDS011;39181;53.440;5.644;2022-11-14T09:28:49;62.70;;;32.88;;
53293;SDS011;39181;53.440;5.644;2022-11-14T09:31:14;64.65;;;34.50;;
53293;SDS011;39181;53.440;5.644;2022-11-14T09:33:40;62.45;;;32.15;;
53293;SDS011;39181;53.440;5.644;2022-11-14T09:36:06;62.30;;;32.50;;
53293;SDS011;39181;53.440;5.644;2022-11-14T09:38:34;56.63;;;31.88;;
53293;SDS011;39181;53.440;5.644;2022-11-14T09:41:05;56.50;;;31.13;;
53293;SDS011;39181;53.440;5.644;2022-11-14T09:46:19;62.33;;;30.85;;
53293;SDS011;39181;53.440;5.644;2022-11-14T09:48:51;57.70;;;30.77;;
53293;SDS011;39181;53.440;5.644;2022-11-14T09:51:24;62.85;;;32.28;;
53293;SDS011;39181;53.440;5.644;2022-11-14T09:56:48;60.47;;;31.90;;
53293;SDS011;39181;53.440;5.644;2022-11-14T09:59:14;61.88;;;31.65;;
53293;SDS011;39181;53.440;5.644;2022-11-14T10:02:00;66.93;;;32.75;;
53293;SDS011;39181;53.440;5.644;2022-11-14T10:10:19;62.58;;;31.98;;
53293;SDS011;39181;53.440;5.644;2022-11-14T10:15:35;57.05;;;29.38;;
53293;SDS011;39181;53.440;5.644;2022-11-14T10:21:29;60.55;;;33.35;;
53293;SDS011;39181;53.440;5.644;2022-11-14T10:24:27;65.25;;;31.55;;
53293;SDS011;39181;53.440;5.644;2022-11-14T10:27:06;59.47;;;32.28;;
53293;SDS011;39181;53.440;5.644;2022-11-14T10:32:48;55.78;;;30.13;;
53293;SDS011;39181;53.440;5.644;2022-11-14T10:35:30;54.25;;;28.83;;
53293;SDS011;39181;53.440;5.644;2022-11-14T10:43:32;50.72;;;29.17;;
53293;SDS011;39181;53.440;5.644;2022-11-14T10:48:51;55.42;;;29.60;;
53293;SDS011;39181;53.440;5.644;2022-11-14T10:54:11;56.13;;;29.13;;
53293;SDS011;39181;53.440;5.644;2022-11-14T10:56:48;53.97;;;29.90;;
53293;SDS011;39181;53.440;5.644;2022-11-14T10:59:18;54.80;;;29.23;;
53293;SDS011;39181;53.440;5.644;2022-11-14T11:01:52;56.45;;;31.10;;
53293;SDS011;39181;53.440;5.644;2022-11-14T11:07:16;55.70;;;30.83;;
53293;SDS011;39181;53.440;5.644;2022-11-14T11:10:06;56.58;;;29.38;;
53293;SDS011;39181;53.440;5.644;2022-11-14T11:13:01;54.92;;;29.38;;
53293;SDS011;39181;53.440;5.644;2022-11-14T11:15:27;53.80;;;28.67;;
53293;SDS011;39181;53.440;5.644;2022-11-14T11:18:03;56.10;;;28.73;;
53293;SDS011;39181;53.440;5.644;2022-11-14T11:20:34;48.72;;;28.38;;
53293;SDS011;39181;53.440;5.644;2022-11-14T11:25:33;51.08;;;27.73;;
53293;SDS011;39181;53.440;5.644;2022-11-14T11:28:03;52.10;;;27.90;;
53293;SDS011;39181;53.440;5.644;2022-11-14T11:30:36;49.33;;;28.30;;
53293;SDS011;39181;53.440;5.644;2022-11-14T11:35:49;46.70;;;27.30;;
53293;SDS011;39181;53.440;5.644;2022-11-14T11:38:17;46.45;;;26.45;;
53293;SDS011;39181;53.440;5.644;2022-11-14T11:40:44;43.20;;;25.60;;
53293;SDS011;39181;53.440;5.644;2022-11-14T11:43:26;44.63;;;26.63;;
53293;SDS011;39181;53.440;5.644;2022-11-14T11:45:59;41.30;;;25.23;;
53293;SDS011;39181;53.440;5.644;2022-11-14T11:48:33;46.83;;;25.08;;
53293;SDS011;39181;53.440;5.644;2022-11-14T11:51:02;45.95;;;25.50;;
53293;SDS011;39181;53.440;5.644;2022-11-14T11:53:30;46.95;;;27.55;;
53293;SDS011;39181;53.440;5.644;2022-11-14T11:56:05;44.58;;;25.95;;
53293;SDS011;39181;53.440;5.644;2022-11-14T11:58:45;44.38;;;27.27;;
53293;SDS011;39181;53.440;5.644;2022-11-14T12:01:14;47.58;;;26.60;;
53293;SDS011;39181;53.440;5.644;2022-11-14T12:03:49;45.17;;;26.80;;
53293;SDS011;39181;53.440;5.644;2022-11-14T12:06:19;45.05;;;25.58;;
53293;SDS011;39181;53.440;5.644;2022-11-14T12:11:54;46.45;;;25.08;;
53293;SDS011;39181;53.440;5.644;2022-11-14T12:14:40;44.95;;;25.38;;
53293;SDS011;39181;53.440;5.644;2022-11-14T12:20:36;38.58;;;21.48;;
53293;SDS011;39181;53.440;5.644;2022-11-14T12:31:01;46.05;;;26.58;;
53293;SDS011;39181;53.440;5.644;2022-11-14T12:33:31;40.67;;;25.10;;
53293;SDS011;39181;53.440;5.644;2022-11-14T12:36:02;47.30;;;25.67;;
53293;SDS011;39181;53.440;5.644;2022-11-14T12:38:33;48.28;;;27.10;;
53293;SDS011;39181;53.440;5.644;2022-11-14T12:41:10;46.17;;;26.58;;
53293;SDS011;39181;53.440;5.644;2022-11-14T12:46:07;41.88;;;25.63;;
53293;SDS011;39181;53.440;5.644;2022-11-14T12:48:36;48.43;;;28.13;;
53293;SDS011;39181;53.440;5.644;2022-11-14T12:51:04;48.17;;;27.25;;
53293;SDS011;39181;53.440;5.644;2022-11-14T12:53:53;42.53;;;27.15;;
53293;SDS011;39181;53.440;5.644;2022-11-14T12:56:24;42.67;;;27.13;;
53293;SDS011;39181;53.440;5.644;2022-11-14T13:07:44;45.05;;;25.80;;
53293;SDS011;39181;53.440;5.644;2022-11-14T13:10:23;45.58;;;27.48;;
53293;SDS011;39181;53.440;5.644;2022-11-14T13:13:10;44.40;;;26.85;;
53293;SDS011;39181;53.440;5.644;2022-11-14T13:15:56;49.15;;;28.70;;
53293;SDS011;39181;53.440;5.644;2022-11-14T13:18:51;44.55;;;28.08;;
53293;SDS011;39181;53.440;5.644;2022-11-14T13:21:38;45.63;;;26.67;;
53293;SDS011;39181;53.440;5.644;2022-11-14T13:27:23;46.40;;;28.13;;
53293;SDS011;39181;53.440;5.644;2022-11-14T13:29:50;48.00;;;28.23;;
53293;SDS011;39181;53.440;5.644;2022-11-14T13:35:13;48.58;;;27.85;;
53293;SDS011;39181;53.440;5.644;2022-11-14T13:40:35;50.38;;;29.90;;
53293;SDS011;39181;53.440;5.644;2022-11-14T13:46:06;51.78;;;29.40;;
53293;SDS011;39181;53.440;5.644;2022-11-14T13:48:58;48.78;;;28.92;;
53293;SDS011;39181;53.440;5.644;2022-11-14T13:51:39;48.25;;;29.70;;
53293;SDS011;39181;53.440;5.644;2022-11-14T13:54:10;47.80;;;27.85;;
53293;SDS011;39181;53.440;5.644;2022-11-14T13:56:51;49.25;;;29.08;;
53293;SDS011;39181;53.440;5.644;2022-11-14T14:08:10;48.50;;;27.33;;
53293;SDS011;39181;53.440;5.644;2022-11-14T14:17:11;45.95;;;26.30;;
53293;SDS011;39181;53.440;5.644;2022-11-14T14:19:57;47.72;;;26.88;;
53293;SDS011;39181;53.440;5.644;2022-11-14T14:30:37;46.63;;;27.00;;
53293;SDS011;39181;53.440;5.644;2022-11-14T14:35:32;45.72;;;26.67;;
53293;SDS011;39181;53.440;5.644;2022-11-14T14:38:04;46.67;;;26.90;;
53293;SDS011;39181;53.440;5.644;2022-11-14T14:40:38;48.03;;;27.13;;
53293;SDS011;39181;53.440;5.644;2022-11-14T14:43:05;44.83;;;25.65;;
53293;SDS011;39181;53.440;5.644;2022-11-14T14:45:35;45.50;;;26.55;;
53293;SDS011;39181;53.440;5.644;2022-11-14T14:48:12;42.95;;;25.85;;
53293;SDS011;39181;53.440;5.644;2022-11-14T14:50:40;46.20;;;26.63;;
53293;SDS011;39181;53.440;5.644;2022-11-14T14:55:50;43.88;;;25.67;;
53293;SDS011;39181;53.440;5.644;2022-11-14T15:00:55;46.00;;;24.85;;
53293;SDS011;39181;53.440;5.644;2022-11-14T15:03:25;45.47;;;26.95;;
53293;SDS011;39181;53.440;5.644;2022-11-14T15:05:59;51.67;;;26.58;;
53293;SDS011;39181;53.440;5.644;2022-11-14T15:08:26;44.22;;;26.17;;
53293;SDS011;39181;53.440;5.644;2022-11-14T15:10:57;41.05;;;24.17;;
53293;SDS011;39181;53.440;5.644;2022-11-14T15:13:24;49.58;;;25.98;;
53293;SDS011;39181;53.440;5.644;2022-11-14T15:15:52;47.30;;;25.85;;
53293;SDS011;39181;53.440;5.644;2022-11-14T15:18:22;46.85;;;25.77;;
53293;SDS011;39181;53.440;5.644;2022-11-14T15:21:05;49.30;;;27.17;;
53293;SDS011;39181;53.440;5.644;2022-11-14T15:23:32;45.22;;;25.77;;
53293;SDS011;39181;53.440;5.644;2022-11-14T15:26:01;46.17;;;26.00;;
53293;SDS011;39181;53.440;5.644;2022-11-14T15:28:27;43.67;;;25.90;;
53293;SDS011;39181;53.440;5.644;2022-11-14T15:30:57;44.72;;;25.90;;
53293;SDS011;39181;53.440;5.644;2022-11-14T15:33:31;44.60;;;25.77;;
53293;SDS011;39181;53.440;5.644;2022-11-14T15:38:34;45.05;;;25.65;;
53293;SDS011;39181;53.440;5.644;2022-11-14T15:41:16;46.78;;;26.13;;
53293;SDS011;39181;53.440;5.644;2022-11-14T15:49:08;48.65;;;26.15;;
53293;SDS011;39181;53.440;5.644;2022-11-14T15:54:28;47.47;;;25.55;;
53293;SDS011;39181;53.440;5.644;2022-11-14T15:56:58;46.85;;;25.27;;
53293;SDS011;39181;53.440;5.644;2022-11-14T15:59:25;51.33;;;27.75;;
53293;SDS011;39181;53.440;5.644;2022-11-14T16:01:55;51.67;;;28.40;;
53293;SDS011;39181;53.440;5.644;2022-11-14T16:04:26;49.42;;;26.48;;
53293;SDS011;39181;53.440;5.644;2022-11-14T16:06:54;50.53;;;27.33;;
53293;SDS011;39181;53.440;5.644;2022-11-14T16:09:20;53.13;;;28.48;;
53293;SDS011;39181;53.440;5.644;2022-11-14T16:11:46;53.88;;;27.23;;
53293;SDS011;39181;53.440;5.644;2022-11-14T16:14:12;53.20;;;27.50;;
53293;SDS011;39181;53.440;5.644;2022-11-14T16:16:38;55.45;;;28.15;;
53293;SDS011;39181;53.440;5.644;2022-11-14T16:19:04;47.20;;;26.27;;
53293;SDS011;39181;53.440;5.644;2022-11-14T16:21:30;52.30;;;27.75;;
53293;SDS011;39181;53.440;5.644;2022-11-14T16:23:56;52.38;;;27.80;;
53293;SDS011;39181;53.440;5.644;2022-11-14T16:26:22;55.72;;;29.17;;
53293;SDS011;39181;53.440;5.644;2022-11-14T16:28:50;55.03;;;29.40;;
53293;SDS011;39181;53.440;5.644;2022-11-14T16:31:16;53.55;;;29.35;;
53293;SDS011;39181;53.440;5.644;2022-11-14T16:33:42;52.42;;;28.67;;